createdAt,value
2023-07-03T00:00:32.880Z,57.50
2023-07-03T00:03:39.748Z,57.90
2023-07-03T00:06:43.072Z,58.10
2023-07-03T00:09:47.390Z,58.00
2023-07-03T00:12:51.120Z,58.20
2023-07-03T00:16:01.010Z,58.20
2023-07-03T00:19:04.558Z,58.40
2023-07-03T00:22:08.145Z,58.80
2023-07-03T00:25:11.855Z,58.70
2023-07-03T00:28:14.952Z,58.70
2023-07-03T00:31:19.319Z,58.90
2023-07-03T00:34:22.583Z,58.90
2023-07-03T00:37:26.076Z,58.90
2023-07-03T00:40:29.380Z,59.10
2023-07-03T00:43:34.465Z,59.20
2023-07-03T00:46:40.474Z,59.50
2023-07-03T00:49:43.790Z,59.50
2023-07-03T00:52:52.953Z,59.70
2023-07-03T00:55:56.107Z,59.70
2023-07-03T00:58:59.595Z,59.90
2023-07-03T01:02:10.844Z,59.90
2023-07-03T01:05:18.850Z,60.00
2023-07-03T01:08:22.425Z,60.00
2023-07-03T01:11:25.596Z,60.10
2023-07-03T01:14:30.822Z,60.20
2023-07-03T01:17:36.967Z,60.30
2023-07-03T01:20:43.084Z,60.40
2023-07-03T01:23:53.923Z,60.40
2023-07-03T01:26:59.099Z,61.30
2023-07-03T01:30:04.042Z,61.50
2023-07-03T01:33:08.639Z,61.40
2023-07-03T01:36:13.584Z,61.20
2023-07-03T01:39:16.823Z,61.30
2023-07-03T01:42:22.925Z,61.30
2023-07-03T01:45:26.835Z,61.30
2023-07-03T01:48:33.857Z,61.20
2023-07-03T01:51:55.694Z,61.30
2023-07-03T01:55:06.450Z,61.30
2023-07-03T01:58:21.090Z,61.20
2023-07-03T02:01:28.377Z,61.10
2023-07-03T02:04:35.949Z,61.30
2023-07-03T02:07:41.117Z,61.20
2023-07-03T02:10:44.210Z,61.30
2023-07-03T02:13:50.317Z,61.40
2023-07-03T02:16:54.281Z,61.40
2023-07-03T02:19:57.610Z,61.70
2023-07-03T02:23:00.700Z,61.20
2023-07-03T02:26:03.926Z,61.00
2023-07-03T02:29:08.340Z,61.20
2023-07-03T02:32:13.326Z,61.40
2023-07-03T02:35:16.525Z,61.30
2023-07-03T02:38:19.534Z,61.30
2023-07-03T02:41:24.091Z,61.40
2023-07-03T02:44:28.888Z,61.40
2023-07-03T02:47:35.847Z,61.40
2023-07-03T02:50:39.053Z,61.60
2023-07-03T02:53:42.169Z,61.60
2023-07-03T02:56:45.179Z,61.80
2023-07-03T02:59:49.835Z,61.70
2023-07-03T03:02:52.996Z,61.60
2023-07-03T03:05:56.926Z,61.40
2023-07-03T03:09:00.060Z,61.20
2023-07-03T03:12:03.083Z,61.10
2023-07-03T03:15:08.674Z,60.90
2023-07-03T03:18:13.551Z,61.20
2023-07-03T03:21:16.915Z,61.10
2023-07-03T03:24:21.574Z,61.00
2023-07-03T03:27:24.733Z,61.10
2023-07-03T03:30:29.262Z,61.30
2023-07-03T03:33:32.598Z,61.50
2023-07-03T03:36:38.362Z,61.60
2023-07-03T03:39:41.626Z,61.50
2023-07-03T03:42:44.735Z,61.40
2023-07-03T03:45:57.380Z,61.40
2023-07-03T03:49:00.583Z,61.10
2023-07-03T03:52:03.879Z,61.00
2023-07-03T03:55:07.757Z,60.90
2023-07-03T03:58:11.962Z,60.80
2023-07-03T04:01:17.003Z,60.70
2023-07-03T04:04:20.172Z,60.40
2023-07-03T04:07:23.430Z,60.60
2023-07-03T04:10:26.528Z,60.90
2023-07-03T04:13:29.854Z,60.80
2023-07-03T04:16:34.841Z,60.40
2023-07-03T04:19:38.120Z,60.70
2023-07-03T04:22:41.252Z,61.00
2023-07-03T04:25:44.509Z,60.40
2023-07-03T04:28:47.862Z,60.40
2023-07-03T04:31:52.397Z,60.40
2023-07-03T04:34:55.423Z,60.50
2023-07-03T04:37:58.847Z,60.90
2023-07-03T04:41:02.106Z,60.40
2023-07-03T04:44:05.429Z,60.40
2023-07-03T04:47:10.277Z,60.40
2023-07-03T04:50:15.982Z,60.60
2023-07-03T04:53:22.403Z,60.70
2023-07-03T04:56:26.389Z,60.90
2023-07-03T04:59:29.414Z,60.40
2023-07-03T05:02:35.855Z,60.20
2023-07-03T05:05:38.958Z,60.20
2023-07-03T05:08:42.052Z,59.90
2023-07-03T05:11:45.117Z,59.80
2023-07-03T05:14:48.212Z,59.40
2023-07-03T05:17:55.956Z,59.20
2023-07-03T05:20:59.183Z,59.50
2023-07-03T05:24:03.605Z,59.60
2023-07-03T05:27:07.165Z,59.40
2023-07-03T05:30:11.631Z,59.00
2023-07-03T05:33:17.306Z,58.20
2023-07-03T05:36:20.803Z,57.90
2023-07-03T05:39:24.078Z,57.50
2023-07-03T05:42:27.132Z,57.40
2023-07-03T05:45:30.181Z,57.70
2023-07-03T05:48:34.573Z,57.70
2023-07-03T05:51:40.082Z,57.20
2023-07-03T05:54:43.176Z,56.40
2023-07-03T05:57:46.357Z,57.00
2023-07-03T06:00:49.567Z,57.00
2023-07-03T06:03:54.860Z,57.40
2023-07-03T06:06:58.440Z,57.30
2023-07-03T06:10:01.365Z,57.10
2023-07-03T06:13:05.426Z,57.40
2023-07-03T06:16:08.475Z,57.30
2023-07-03T06:19:13.909Z,57.00
2023-07-03T06:22:17.001Z,57.10
2023-07-03T06:25:20.038Z,56.30
2023-07-03T06:28:23.135Z,56.20
2023-07-03T06:31:27.017Z,56.40
2023-07-03T06:34:31.356Z,55.90
2023-07-03T06:37:35.214Z,56.70
2023-07-03T06:40:38.376Z,55.90
2023-07-03T06:43:41.647Z,56.00
2023-07-03T06:46:45.617Z,56.20
2023-07-03T06:49:50.025Z,55.40
2023-07-03T06:52:53.320Z,54.80
2023-07-03T06:55:59.365Z,55.00
2023-07-03T06:59:02.501Z,55.20
2023-07-03T07:02:06.681Z,55.60
2023-07-03T07:05:12.617Z,55.40
2023-07-03T07:08:17.920Z,55.20
2023-07-03T07:11:23.502Z,55.00
2023-07-03T07:14:26.556Z,55.60
2023-07-03T07:17:45.820Z,54.80
2023-07-03T07:20:55.529Z,55.40
2023-07-03T07:24:00.622Z,55.30
2023-07-03T07:27:06.235Z,55.20
2023-07-03T07:30:10.383Z,55.20
2023-07-03T07:33:13.456Z,55.50
2023-07-03T07:36:19.505Z,55.30
2023-07-03T07:39:23.331Z,54.70
2023-07-03T07:42:26.458Z,54.40
2023-07-03T07:45:29.495Z,54.50
2023-07-03T07:48:34.054Z,54.40
2023-07-03T07:51:40.978Z,54.70
2023-07-03T07:54:44.260Z,54.10
2023-07-03T07:57:47.447Z,54.50
2023-07-03T08:00:54.264Z,54.30
2023-07-03T08:03:57.407Z,54.70
2023-07-03T08:07:03.271Z,54.70
2023-07-03T08:10:06.910Z,53.90
2023-07-03T08:13:10.222Z,54.00
2023-07-03T08:16:14.890Z,53.70
2023-07-03T08:19:18.099Z,54.40
2023-07-03T08:22:22.514Z,54.10
2023-07-03T08:25:25.530Z,54.80
2023-07-03T08:28:28.675Z,54.20
2023-07-03T08:31:31.729Z,53.90
2023-07-03T08:34:35.006Z,53.60
2023-07-03T08:37:40.016Z,52.80
2023-07-03T08:40:43.847Z,52.90
2023-07-03T08:43:49.723Z,52.70
2023-07-03T08:47:06.467Z,53.00
2023-07-03T08:50:27.858Z,53.90
2023-07-03T08:53:39.888Z,52.60
2023-07-03T08:56:43.295Z,54.00
2023-07-03T08:59:46.525Z,52.80
2023-07-03T09:02:58.004Z,52.50
2023-07-03T09:06:10.654Z,51.80
2023-07-03T09:09:24.217Z,49.70
2023-07-03T09:12:31.853Z,49.80
2023-07-03T09:15:39.675Z,50.30
2023-07-03T09:18:48.466Z,48.90
2023-07-03T09:21:55.056Z,48.00
2023-07-03T09:25:04.888Z,47.50
2023-07-03T09:28:11.451Z,48.60
2023-07-03T09:31:14.914Z,47.30
2023-07-03T09:34:18.141Z,45.60
2023-07-03T09:37:22.584Z,45.20
2023-07-03T09:40:33.761Z,46.20
2023-07-03T09:43:45.419Z,46.40
2023-07-03T09:46:49.162Z,46.00
2023-07-03T09:49:52.771Z,45.30
2023-07-03T09:53:07.649Z,45.90
2023-07-03T09:56:18.562Z,45.80
2023-07-03T09:59:21.846Z,45.90
2023-07-03T10:08:44.008Z,45.20
2023-07-03T10:12:03.457Z,45.10
2023-07-03T10:15:10.247Z,44.70
2023-07-03T10:18:19.803Z,45.50
2023-07-03T10:21:24.055Z,45.50
2023-07-03T10:24:27.498Z,45.30
2023-07-03T10:27:33.836Z,45.90
2023-07-03T10:30:40.602Z,46.50
2023-07-03T10:33:48.050Z,45.60
2023-07-03T10:36:56.577Z,46.50
2023-07-03T10:40:04.053Z,46.70
2023-07-03T10:43:13.476Z,46.40
2023-07-03T10:46:22.369Z,46.70
2023-07-03T10:49:30.784Z,47.10
2023-07-03T10:52:40.937Z,46.30
2023-07-03T10:55:50.928Z,47.00
2023-07-03T10:59:04.580Z,46.20
2023-07-03T11:02:18.844Z,45.00
2023-07-03T11:05:26.570Z,45.80
2023-07-03T11:08:40.792Z,44.70
2023-07-03T11:11:59.944Z,44.80
2023-07-03T11:15:20.955Z,44.80
2023-07-03T11:25:13.726Z,47.00
2023-07-03T11:28:26.868Z,47.00
2023-07-03T11:31:32.234Z,47.00
2023-07-03T11:44:35.002Z,47.30
2023-07-03T11:47:39.556Z,47.90
2023-07-03T11:50:42.716Z,47.70
2023-07-03T11:53:50.080Z,47.60
2023-07-03T11:56:58.217Z,48.40
2023-07-03T12:00:20.571Z,48.40
2023-07-03T12:03:50.737Z,47.90
2023-07-03T12:06:54.784Z,47.70
2023-07-03T12:10:38.020Z,47.20
2023-07-03T12:13:56.201Z,46.70
2023-07-03T12:16:59.728Z,47.10
2023-07-03T12:20:11.530Z,48.50
2023-07-03T12:23:14.992Z,48.00
2023-07-03T12:26:20.557Z,47.10
2023-07-03T12:29:24.020Z,47.20
2023-07-03T12:32:29.039Z,47.40
2023-07-03T12:35:37.360Z,47.30
2023-07-03T12:38:40.396Z,47.20
2023-07-03T12:41:45.458Z,47.50
2023-07-03T12:44:48.578Z,47.90
2023-07-03T12:48:02.482Z,47.10
2023-07-03T12:51:09.419Z,47.50
2023-07-03T12:54:14.433Z,47.70
2023-07-03T12:57:17.577Z,47.50
2023-07-03T13:00:31.766Z,48.70
2023-07-03T13:03:40.309Z,47.90
2023-07-03T13:06:45.984Z,47.90
2023-07-03T13:09:49.392Z,48.50
2023-07-03T13:13:08.393Z,48.40
2023-07-03T13:16:19.030Z,48.20
2023-07-03T13:19:34.536Z,47.90
2023-07-03T13:22:39.071Z,47.60
2023-07-03T13:25:52.406Z,47.70
2023-07-03T13:28:59.682Z,47.80
2023-07-03T13:32:18.797Z,47.00
2023-07-03T13:35:29.849Z,47.30
2023-07-03T13:38:35.691Z,47.20
2023-07-03T13:41:39.738Z,47.50
2023-07-03T13:44:42.785Z,46.90
2023-07-03T13:47:45.901Z,46.80
2023-07-03T13:50:50.638Z,46.90
2023-07-03T13:54:03.133Z,47.00
2023-07-03T13:57:14.281Z,46.40
2023-07-03T14:00:17.969Z,46.90
2023-07-03T14:03:21.471Z,47.00
2023-07-03T14:06:24.805Z,47.50
2023-07-03T14:09:29.212Z,47.20
2023-07-03T14:12:32.459Z,46.90
2023-07-03T14:15:37.625Z,48.00
2023-07-03T14:18:41.167Z,48.50
2023-07-03T14:21:44.961Z,47.90
2023-07-03T14:24:50.661Z,48.10
2023-07-03T14:27:54.187Z,47.70
2023-07-03T14:30:57.239Z,47.90
2023-07-03T14:34:00.379Z,48.70
2023-07-03T14:37:05.164Z,48.30
2023-07-03T14:40:14.140Z,48.50
2023-07-03T14:43:18.602Z,47.60
2023-07-03T14:46:21.855Z,48.30
2023-07-03T14:49:24.949Z,48.00
2023-07-03T14:52:36.634Z,48.00
2023-07-03T14:55:41.095Z,48.00
2023-07-03T14:58:44.081Z,48.00
2023-07-03T15:01:47.228Z,48.40
2023-07-03T15:04:50.429Z,47.90
2023-07-03T15:07:53.717Z,47.90
2023-07-03T15:10:58.195Z,47.60
2023-07-03T15:14:01.502Z,48.20
2023-07-03T15:17:05.439Z,46.50
2023-07-03T15:20:09.745Z,47.70
2023-07-03T15:23:13.307Z,47.50
2023-07-03T15:26:17.935Z,47.60
2023-07-03T15:29:21.038Z,47.80
2023-07-03T15:32:24.322Z,47.50
2023-07-03T15:35:27.335Z,46.70
2023-07-03T15:38:30.990Z,47.00
2023-07-03T15:41:35.528Z,46.50
2023-07-03T15:44:38.593Z,46.60
2023-07-03T15:47:42.130Z,46.80
2023-07-03T15:50:57.544Z,46.30
2023-07-03T15:54:01.520Z,46.80
2023-07-03T15:57:06.289Z,47.40
2023-07-03T16:00:10.690Z,46.80
2023-07-03T16:03:13.715Z,46.80
2023-07-03T16:06:18.607Z,47.20
2023-07-03T16:09:22.278Z,46.40
2023-07-03T16:12:26.681Z,46.70
2023-07-03T16:15:33.281Z,46.70
2023-07-03T16:18:36.746Z,46.40
2023-07-03T16:21:41.543Z,47.10
2023-07-03T16:24:44.835Z,47.80
2023-07-03T16:27:49.251Z,47.40
2023-07-03T16:31:03.272Z,47.40
2023-07-03T16:34:06.408Z,47.60
2023-07-03T16:37:09.462Z,46.50
2023-07-03T16:40:13.422Z,46.80
2023-07-03T16:43:18.372Z,46.40
2023-07-03T16:46:23.335Z,46.00
2023-07-03T16:49:26.388Z,46.30
2023-07-03T16:52:29.436Z,46.40
2023-07-03T16:55:34.029Z,46.20
2023-07-03T16:58:39.475Z,46.20
2023-07-03T17:01:42.470Z,46.50
2023-07-03T17:04:45.854Z,46.50
2023-07-03T17:07:48.901Z,46.80
2023-07-03T17:10:51.918Z,46.60
2023-07-03T17:13:59.549Z,47.00
2023-07-03T17:17:02.751Z,46.70
2023-07-03T17:20:06.326Z,46.80
2023-07-03T17:23:09.822Z,47.00
2023-07-03T17:26:13.199Z,47.10
2023-07-03T17:29:17.742Z,47.50
2023-07-03T17:32:23.532Z,47.70
2023-07-03T17:35:26.718Z,47.70
2023-07-03T17:38:30.102Z,47.80
2023-07-03T17:41:33.186Z,48.00
2023-07-03T17:44:37.622Z,48.00
2023-07-03T17:47:40.798Z,47.70
2023-07-03T17:50:46.872Z,48.20
2023-07-03T17:53:50.219Z,48.00
2023-07-03T17:56:54.298Z,48.00
2023-07-03T17:59:58.808Z,47.90
2023-07-03T18:03:02.248Z,48.10
2023-07-03T18:06:05.918Z,48.20
2023-07-03T18:09:09.206Z,48.10
2023-07-03T18:12:12.350Z,48.20
2023-07-03T18:15:17.178Z,48.20
2023-07-03T18:18:21.014Z,48.60
2023-07-03T18:21:26.160Z,48.40
2023-07-03T18:24:29.128Z,48.70
2023-07-03T18:27:32.117Z,48.70
2023-07-03T18:30:36.494Z,49.20
2023-07-03T18:33:39.570Z,49.10
2023-07-03T18:36:42.977Z,49.00
2023-07-03T18:39:46.050Z,49.50
2023-07-03T18:42:49.076Z,49.30
2023-07-03T18:45:53.637Z,49.40
2023-07-03T18:48:57.120Z,49.40
2023-07-03T18:52:00.213Z,49.70
2023-07-03T18:55:04.071Z,49.70
2023-07-03T18:58:07.745Z,49.70
2023-07-03T19:01:14.077Z,49.70
2023-07-03T19:04:17.156Z,50.00
2023-07-03T19:07:20.340Z,50.00
2023-07-03T19:10:23.349Z,50.00
2023-07-03T19:13:26.569Z,50.20
2023-07-03T19:16:31.092Z,50.30
2023-07-03T19:19:34.220Z,50.50
2023-07-03T19:22:37.198Z,50.40
2023-07-03T19:25:40.244Z,50.70
2023-07-03T19:28:45.168Z,50.50
2023-07-03T19:31:49.711Z,50.70
2023-07-03T19:34:53.446Z,50.90
2023-07-03T19:37:56.549Z,50.90
2023-07-03T19:40:59.557Z,51.00
2023-07-03T19:44:03.936Z,50.80
2023-07-03T19:47:08.706Z,51.00
2023-07-03T19:50:12.664Z,51.40
2023-07-03T19:53:16.173Z,51.40
2023-07-03T19:56:21.188Z,51.40
2023-07-03T19:59:24.328Z,51.70
2023-07-03T20:02:28.721Z,51.70
2023-07-03T20:05:36.843Z,51.70
2023-07-03T20:08:41.573Z,52.10
2023-07-03T20:11:44.959Z,52.20
2023-07-03T20:14:48.234Z,52.70
2023-07-03T20:17:52.662Z,52.70
2023-07-03T20:20:55.769Z,52.50
2023-07-03T20:23:59.460Z,53.00
2023-07-03T20:27:02.830Z,52.60
2023-07-03T20:30:07.608Z,53.00
2023-07-03T20:33:12.132Z,53.40
2023-07-03T20:36:17.897Z,53.20
2023-07-03T20:39:20.940Z,53.10
2023-07-03T20:42:24.772Z,53.20
2023-07-03T20:45:28.303Z,53.30
2023-07-03T20:48:33.917Z,53.40
2023-07-03T20:51:37.105Z,53.60
2023-07-03T20:54:54.899Z,53.80
2023-07-03T20:57:58.464Z,53.80
2023-07-03T21:01:11.865Z,53.90
2023-07-03T21:04:16.592Z,54.00
2023-07-03T21:07:21.851Z,54.10
2023-07-03T21:10:24.918Z,54.30
2023-07-03T21:13:28.084Z,54.60
2023-07-03T21:16:31.153Z,54.40
2023-07-03T21:19:35.632Z,54.60
2023-07-03T21:22:38.644Z,54.60
2023-07-03T21:25:41.667Z,54.90
2023-07-03T21:28:47.817Z,55.10
2023-07-03T21:31:51.066Z,55.20
2023-07-03T21:34:55.820Z,55.30
2023-07-03T21:38:00.006Z,55.50
2023-07-03T21:41:03.359Z,55.20
2023-07-03T21:44:13.316Z,55.40
2023-07-03T21:47:17.076Z,55.70
2023-07-03T21:50:24.212Z,55.80
2023-07-03T21:53:27.921Z,55.80
2023-07-03T21:56:32.485Z,56.20
2023-07-03T21:59:35.692Z,56.30
2023-07-03T22:02:39.293Z,56.20
2023-07-03T22:05:43.876Z,56.50
2023-07-03T22:08:47.137Z,56.50
2023-07-03T22:11:50.156Z,56.70
2023-07-03T22:14:54.818Z,56.80
2023-07-03T22:17:57.990Z,56.90
2023-07-03T22:21:03.157Z,57.00
2023-07-03T22:24:06.658Z,57.00
2023-07-03T22:27:09.962Z,56.80
2023-07-03T22:30:14.079Z,56.70
2023-07-03T22:33:19.744Z,57.10
2023-07-03T22:36:27.595Z,57.10
2023-07-03T22:39:30.737Z,57.20
2023-07-03T22:42:34.076Z,57.30
2023-07-03T22:45:37.544Z,57.00
2023-07-03T22:48:42.491Z,57.00
2023-07-03T22:51:47.152Z,57.00
2023-07-03T22:54:50.312Z,56.90
2023-07-03T22:57:53.720Z,56.60
2023-07-03T23:00:57.052Z,56.50
2023-07-03T23:04:00.134Z,56.80
2023-07-03T23:07:04.951Z,56.70
2023-07-03T23:10:09.757Z,57.00
2023-07-03T23:13:12.977Z,56.90
2023-07-03T23:16:16.083Z,56.80
2023-07-03T23:19:19.402Z,57.10
2023-07-03T23:22:24.883Z,56.80
2023-07-03T23:25:28.022Z,56.80
2023-07-03T23:28:34.552Z,57.20
2023-07-03T23:31:38.396Z,57.00
2023-07-03T23:34:41.685Z,56.90
2023-07-03T23:37:46.104Z,56.90
2023-07-03T23:40:50.075Z,57.00
2023-07-03T23:43:55.543Z,57.10
2023-07-03T23:47:00.000Z,57.20
2023-07-03T23:50:04.389Z,57.20
2023-07-03T23:53:09.287Z,57.00
2023-07-03T23:56:14.174Z,57.20
2023-07-03T23:59:20.262Z,57.30
